Time;durP1;ratioP1;P1;durP2;ratioP2;P2;SDS_P1;SDS_P2;PMS_P1;PMS_P2;Temp;Humidity;BMP_temperature;BMP_pressure;BME280_temperature;BME280_humidity;BME280_pressure;Samples;Min_cycle;Max_cycle;Signal;HPM_P1;HPM_P2
2023/01/25 00:00:09;;;;;;;16.73;9.80;;;4.80;1.00;;;;;;5030771;28;20547;-76
2023/01/25 00:02:35;;;;;;;16.30;9.83;;;4.90;1.00;;;;;;5028725;28;20282;-76
2023/01/25 00:05:01;;;;;;;15.30;9.63;;;4.80;1.00;;;;;;5019625;28;20437;-76
2023/01/25 00:07:26;;;;;;;18.30;9.70;;;4.90;1.00;;;;;;5026166;28;20191;-76
2023/01/25 00:09:52;;;;;;;17.77;10.20;;;4.90;1.00;;;;;;5029264;28;20243;-75
2023/01/25 00:12:17;;;;;;;18.07;10.10;;;4.90;1.00;;;;;;5030380;28;20204;-76
2023/01/25 00:14:44;;;;;;;16.47;9.47;;;4.90;1.00;;;;;;5022029;28;20213;-76
2023/01/25 00:17:09;;;;;;;17.77;9.47;;;4.90;1.00;;;;;;5029561;28;20296;-76
2023/01/25 00:19:35;;;;;;;16.73;9.37;;;4.80;1.00;;;;;;5028844;28;20532;-75
2023/01/25 00:22:00;;;;;;;17.80;10.07;;;4.80;1.00;;;;;;5029409;28;20202;-76
2023/01/25 00:24:26;;;;;;;17.13;10.10;;;4.70;1.00;;;;;;5028920;28;20639;-75
2023/01/25 00:26:51;;;;;;;15.30;9.50;;;4.80;1.00;;;;;;5030311;28;21252;-75
2023/01/25 00:29:17;;;;;;;16.37;9.90;;;4.90;1.00;;;;;;5029260;28;20300;-76
2023/01/25 00:31:58;;;;;;;14.07;8.90;;;4.90;1.00;;;;;;5028715;28;20339;-75
2023/01/25 00:34:24;;;;;;;16.73;9.93;;;4.90;1.00;;;;;;5056190;28;20248;-75
2023/01/25 00:37:05;;;;;;;13.70;8.47;;;4.90;1.00;;;;;;5028517;28;20460;-76
2023/01/25 00:39:31;;;;;;;17.00;9.63;;;5.00;1.00;;;;;;5025253;28;20182;-73
2023/01/25 00:41:56;;;;;;;14.23;9.20;;;5.00;1.00;;;;;;5028910;28;20498;-75
2023/01/25 00:44:22;;;;;;;15.80;8.97;;;6.00;1.00;;;;;;5030522;28;20552;-76
2023/01/25 00:46:48;;;;;;;15.90;9.33;;;4.90;1.00;;;;;;5029080;28;20547;-76
2023/01/25 00:49:25;;;;;;;14.23;8.70;;;4.80;1.00;;;;;;5028796;28;20684;-76
2023/01/25 00:51:52;;;;;;;14.03;8.90;;;4.80;1.00;;;;;;5029116;28;20221;-76
2023/01/25 00:54:18;;;;;;;15.03;9.70;;;4.80;1.00;;;;;;5027701;28;20849;-75
2023/01/25 00:56:44;;;;;;;15.73;9.40;;;4.80;1.00;;;;;;5029770;28;20495;-76
2023/01/25 00:59:10;;;;;;;14.97;9.60;;;4.80;1.00;;;;;;5028186;28;20182;-75
2023/01/25 01:01:36;;;;;;;15.00;8.80;;;4.80;1.00;;;;;;5028731;28;20460;-74
2023/01/25 01:04:02;;;;;;;18.40;9.97;;;4.70;1.00;;;;;;5028420;28;20436;-76
2023/01/25 01:06:27;;;;;;;13.70;8.60;;;4.70;1.00;;;;;;5026599;28;20217;-76
2023/01/25 01:08:53;;;;;;;14.53;8.63;;;4.70;1.00;;;;;;5029360;28;20564;-75
2023/01/25 01:11:19;;;;;;;16.87;10.07;;;4.70;1.00;;;;;;5026860;28;20679;-76
2023/01/25 01:13:44;;;;;;;18.23;9.63;;;4.70;1.00;;;;;;5027778;28;20190;-76
2023/01/25 01:16:11;;;;;;;17.83;10.30;;;4.70;1.00;;;;;;5029468;28;20972;-76
2023/01/25 01:18:39;;;;;;;16.50;9.77;;;4.60;1.00;;;;;;5027684;28;20178;-74
2023/01/25 01:21:06;;;;;;;19.30;11.13;;;4.60;1.00;;;;;;5030045;28;20420;-75
2023/01/25 01:23:33;;;;;;;15.50;9.60;;;4.60;1.00;;;;;;5028377;28;20451;-76
2023/01/25 01:26:00;;;;;;;17.90;11.10;;;4.60;1.00;;;;;;5023247;28;20863;-76
2023/01/25 01:28:27;;;;;;;18.40;10.40;;;4.70;1.00;;;;;;5018452;28;20468;-75
2023/01/25 01:30:53;;;;;;;18.20;9.70;;;4.60;1.00;;;;;;5026675;28;20503;-76
2023/01/25 01:33:18;;;;;;;19.47;10.73;;;4.60;1.00;;;;;;5028985;28;20439;-75
2023/01/25 01:35:45;;;;;;;17.10;10.10;;;4.60;1.00;;;;;;5028488;28;20194;-76
2023/01/25 01:38:11;;;;;;;17.53;10.13;;;4.60;1.00;;;;;;5026897;28;20683;-76
2023/01/25 01:40:36;;;;;;;16.37;10.27;;;4.60;1.00;;;;;;5027670;28;20435;-73
2023/01/25 01:43:05;;;;;;;17.03;10.10;;;4.90;1.00;;;;;;5029239;28;20212;-76
2023/01/25 01:45:46;;;;;;;17.00;9.20;;;4.60;1.00;;;;;;5028780;28;20240;-76
2023/01/25 01:48:36;;;;;;;18.50;9.47;;;4.50;1.00;;;;;;5028282;28;20489;-76
2023/01/25 01:51:22;;;;;;;16.13;9.30;;;4.50;1.00;;;;;;5028834;28;20433;-76
2023/01/25 01:54:02;;;;;;;16.77;9.50;;;4.50;1.00;;;;;;5029227;28;20420;-76
2023/01/25 01:56:36;;;;;;;12.83;8.30;;;4.50;1.00;;;;;;5027724;28;20468;-75
2023/01/25 01:59:03;;;;;;;12.67;7.97;;;4.50;1.00;;;;;;5026747;28;20827;-75
2023/01/25 02:01:30;;;;;;;16.50;9.03;;;4.50;1.00;;;;;;5028083;28;20476;-76
2023/01/25 02:03:55;;;;;;;14.40;8.40;;;4.80;1.00;;;;;;5026904;28;20970;-75
2023/01/25 02:06:28;;;;;;;16.27;8.90;;;4.60;1.00;;;;;;5025486;28;20450;-76
2023/01/25 02:08:55;;;;;;;13.33;8.20;;;4.50;1.00;;;;;;5025560;28;20276;-75
2023/01/25 02:11:21;;;;;;;14.70;8.50;;;4.90;1.00;;;;;;5028426;28;20494;-75
2023/01/25 02:13:48;;;;;;;14.07;8.10;;;4.50;1.00;;;;;;5028952;28;20440;-75
2023/01/25 02:16:16;;;;;;;15.90;8.43;;;4.50;1.00;;;;;;5028131;28;20240;-76
2023/01/25 02:18:42;;;;;;;12.93;7.90;;;4.50;1.00;;;;;;5024243;28;20475;-75
2023/01/25 02:21:08;;;;;;;12.30;7.70;;;4.50;1.00;;;;;;5027701;28;20496;-75
2023/01/25 02:23:41;;;;;;;12.20;7.60;;;4.50;1.00;;;;;;5028478;28;20597;-76
2023/01/25 02:26:07;;;;;;;13.90;8.80;;;4.50;1.00;;;;;;5021118;28;20233;-76
2023/01/25 02:28:41;;;;;;;16.33;8.47;;;4.80;1.00;;;;;;5026652;28;20437;-76
2023/01/25 02:31:07;;;;;;;12.50;8.03;;;4.50;1.00;;;;;;5029206;28;20193;-76
2023/01/25 02:33:33;;;;;;;14.10;8.20;;;4.60;1.00;;;;;;5025405;28;20527;-75
2023/01/25 02:36:07;;;;;;;14.17;8.87;;;4.90;1.00;;;;;;5026532;28;20256;-75
2023/01/25 02:38:37;;;;;;;12.00;7.83;;;4.70;1.00;;;;;;5028375;28;20551;-76
2023/01/25 02:41:14;;;;;;;15.43;8.47;;;4.60;1.00;;;;;;5026547;28;20490;-75
2023/01/25 02:43:39;;;;;;;10.53;7.23;;;4.60;1.00;;;;;;5029202;28;20520;-76
2023/01/25 02:46:26;;;;;;;12.30;7.77;;;4.10;1.00;;;;;;5023868;28;20558;-75
2023/01/25 02:48:53;;;;;;;10.73;6.57;;;4.50;1.00;;;;;;5026522;28;20177;-75
2023/01/25 02:51:20;;;;;;;12.33;7.40;;;4.50;1.00;;;;;;5028157;28;20543;-76
2023/01/25 02:53:46;;;;;;;13.87;7.33;;;4.60;1.00;;;;;;5028681;28;20452;-74
2023/01/25 02:56:12;;;;;;;13.83;7.43;;;4.90;1.00;;;;;;5029230;28;20517;-75
2023/01/25 02:58:37;;;;;;;10.83;6.70;;;3.90;1.00;;;;;;5032122;28;20601;-75
2023/01/25 03:01:03;;;;;;;12.60;7.70;;;4.60;1.00;;;;;;5031229;28;20523;-75
2023/01/25 03:03:28;;;;;;;13.97;8.03;;;4.40;1.00;;;;;;5031959;28;20182;-76
2023/01/25 03:05:54;;;;;;;9.53;6.10;;;4.40;1.00;;;;;;5022684;28;20243;-74
2023/01/25 03:08:20;;;;;;;12.27;7.43;;;4.40;1.00;;;;;;5028287;28;20293;-75
2023/01/25 03:10:45;;;;;;;12.03;7.37;;;4.40;1.00;;;;;;5031000;28;20228;-74
2023/01/25 03:13:10;;;;;;;13.50;7.63;;;4.40;1.00;;;;;;5030924;28;20181;-75
2023/01/25 03:15:36;;;;;;;13.80;8.00;;;4.70;1.00;;;;;;5029779;28;20181;-75
2023/01/25 03:18:02;;;;;;;12.20;6.40;;;4.40;1.00;;;;;;5029401;28;20214;-76
2023/01/25 03:20:27;;;;;;;12.70;7.93;;;4.40;1.00;;;;;;5030132;28;20192;-75
2023/01/25 03:22:54;;;;;;;11.30;7.80;;;4.70;1.00;;;;;;5031762;28;20719;-75
2023/01/25 03:25:19;;;;;;;10.10;6.60;;;4.30;1.00;;;;;;5031447;28;20174;-75
2023/01/25 03:27:45;;;;;;;9.60;6.53;;;4.30;1.00;;;;;;5029933;28;20436;-73
2023/01/25 03:30:10;;;;;;;10.13;6.90;;;4.50;1.00;;;;;;5030653;28;20213;-75
2023/01/25 03:32:36;;;;;;;13.27;7.40;;;4.40;1.00;;;;;;5029120;28;20206;-76
2023/01/25 03:35:02;;;;;;;11.57;7.67;;;4.30;1.00;;;;;;5029247;28;20205;-75
2023/01/25 03:37:30;;;;;;;14.13;7.20;;;4.20;1.00;;;;;;5028516;28;20400;-75
2023/01/25 03:39:56;;;;;;;10.87;6.60;;;4.20;1.00;;;;;;5030060;28;20248;-75
2023/01/25 03:42:22;;;;;;;14.73;6.80;;;4.30;1.00;;;;;;5030559;28;20465;-76
2023/01/25 03:44:47;;;;;;;11.83;7.43;;;4.30;1.00;;;;;;5029157;28;20439;-74
2023/01/25 03:47:13;;;;;;;10.93;7.00;;;4.30;1.00;;;;;;5031274;28;20424;-75
2023/01/25 03:49:39;;;;;;;10.67;6.87;;;4.10;1.00;;;;;;5031076;28;20204;-75
2023/01/25 03:52:04;;;;;;;10.73;6.43;;;4.20;1.00;;;;;;5031383;28;20236;-75
2023/01/25 03:54:30;;;;;;;12.50;7.30;;;4.20;1.00;;;;;;5028943;28;20190;-75
2023/01/25 03:56:55;;;;;;;9.80;6.50;;;4.20;1.00;;;;;;5029200;28;20309;-75
2023/01/25 03:59:21;;;;;;;8.40;5.50;;;4.60;1.00;;;;;;5030652;28;20182;-76
2023/01/25 04:01:47;;;;;;;10.33;6.10;;;4.20;1.00;;;;;;5031161;28;20733;-76
2023/01/25 04:04:13;;;;;;;11.03;6.97;;;4.60;1.00;;;;;;5028431;28;20189;-76
2023/01/25 04:06:39;;;;;;;10.10;6.70;;;4.20;1.00;;;;;;5029072;28;20182;-75
2023/01/25 04:09:05;;;;;;;11.63;7.03;;;4.60;1.00;;;;;;5030351;28;20765;-76
2023/01/25 04:11:31;;;;;;;11.57;5.73;;;4.30;1.00;;;;;;5029875;28;20679;-76
2023/01/25 04:13:56;;;;;;;10.83;6.77;;;4.40;1.00;;;;;;5029310;28;20504;-75
2023/01/25 04:16:22;;;;;;;11.60;6.90;;;4.00;1.00;;;;;;5030013;28;20197;-75
2023/01/25 04:18:47;;;;;;;10.70;6.40;;;4.00;1.00;;;;;;5030273;28;20184;-74
2023/01/25 04:21:13;;;;;;;10.57;6.43;;;4.10;1.00;;;;;;5028824;28;20563;-76
2023/01/25 04:23:38;;;;;;;12.63;7.17;;;4.10;1.00;;;;;;5030378;28;20544;-76
2023/01/25 04:26:06;;;;;;;11.43;5.90;;;4.10;1.00;;;;;;5029222;28;20565;-75
2023/01/25 04:28:34;;;;;;;9.07;5.70;;;4.00;1.00;;;;;;5029521;28;20181;-75
2023/01/25 04:31:00;;;;;;;10.23;5.70;;;4.00;1.00;;;;;;5030441;28;20515;-75
2023/01/25 04:33:26;;;;;;;11.43;6.90;;;4.00;1.00;;;;;;5028284;28;20491;-75
2023/01/25 04:35:51;;;;;;;10.50;6.57;;;3.90;1.00;;;;;;5028553;28;20432;-75
2023/01/25 04:38:17;;;;;;;12.60;6.53;;;3.80;1.00;;;;;;5028970;28;20800;-75
2023/01/25 04:40:43;;;;;;;11.30;6.37;;;4.00;1.00;;;;;;5029232;28;20205;-75
2023/01/25 04:43:12;;;;;;;12.97;6.40;;;3.80;1.00;;;;;;5029821;28;20522;-75
2023/01/25 04:45:38;;;;;;;10.83;5.90;;;3.80;1.00;;;;;;5029272;28;20443;-76
2023/01/25 04:48:08;;;;;;;11.30;7.03;;;3.80;1.00;;;;;;5027502;28;20524;-75
2023/01/25 04:50:38;;;;;;;13.17;7.87;;;3.80;1.00;;;;;;5029030;28;20250;-76
2023/01/25 04:53:04;;;;;;;9.47;6.50;;;3.80;1.00;;;;;;5028796;28;20453;-76
2023/01/25 04:55:29;;;;;;;11.27;6.90;;;4.10;1.00;;;;;;5028589;28;20471;-75
2023/01/25 04:57:55;;;;;;;12.20;7.33;;;3.70;1.00;;;;;;5029607;28;20973;-75
2023/01/25 05:00:20;;;;;;;11.40;6.73;;;3.70;1.00;;;;;;5028851;28;20186;-76
2023/01/25 05:02:46;;;;;;;10.73;6.83;;;3.60;1.00;;;;;;5029528;28;20212;-76
2023/01/25 05:05:12;;;;;;;11.90;7.17;;;4.00;1.00;;;;;;5028914;28;20715;-76
2023/01/25 05:07:37;;;;;;;12.77;7.40;;;3.60;1.00;;;;;;5024648;28;20199;-76
2023/01/25 05:10:04;;;;;;;13.70;8.77;;;3.60;1.00;;;;;;5025857;28;20556;-75
2023/01/25 05:12:29;;;;;;;13.33;7.40;;;3.60;1.00;;;;;;5029527;28;20224;-75
2023/01/25 05:14:55;;;;;;;15.60;7.70;;;3.60;1.00;;;;;;5028866;28;20444;-76
2023/01/25 05:17:20;;;;;;;12.07;7.50;;;3.60;1.00;;;;;;5028072;28;20725;-76
2023/01/25 05:19:46;;;;;;;11.83;6.67;;;3.90;1.00;;;;;;5028380;28;20564;-76
2023/01/25 05:22:13;;;;;;;14.30;8.23;;;3.60;1.00;;;;;;5029325;28;20233;-75
2023/01/25 05:24:40;;;;;;;11.60;7.00;;;3.60;1.00;;;;;;5028773;28;20251;-75
2023/01/25 05:27:07;;;;;;;12.03;7.53;;;3.60;1.00;;;;;;5027644;28;20539;-75
2023/01/25 05:29:38;;;;;;;12.03;6.93;;;3.70;1.00;;;;;;5033139;28;20476;-76
2023/01/25 05:32:09;;;;;;;10.83;6.80;;;3.70;1.00;;;;;;5027078;28;20515;-75
2023/01/25 05:34:35;;;;;;;13.00;7.63;;;3.70;1.00;;;;;;5029444;28;20957;-75
2023/01/25 05:37:02;;;;;;;11.60;7.20;;;3.90;1.00;;;;;;5023637;28;20456;-75
2023/01/25 05:39:29;;;;;;;14.37;7.70;;;4.20;1.00;;;;;;5029264;28;20197;-76
2023/01/25 05:41:55;;;;;;;12.03;7.47;;;3.90;1.00;;;;;;5029145;28;20543;-75
2023/01/25 05:44:21;;;;;;;15.47;8.13;;;3.80;1.00;;;;;;5028300;28;20448;-76
2023/01/25 05:46:47;;;;;;;10.80;6.73;;;3.80;1.00;;;;;;5028578;28;20198;-78
2023/01/25 05:49:13;;;;;;;15.90;7.87;;;3.40;1.00;;;;;;5028502;28;20447;-76
2023/01/25 05:51:39;;;;;;;15.03;8.30;;;3.60;1.00;;;;;;5029277;28;20630;-76
2023/01/25 05:54:05;;;;;;;13.10;7.60;;;3.40;1.00;;;;;;5027088;28;20857;-76
2023/01/25 05:56:31;;;;;;;13.63;7.83;;;3.50;1.00;;;;;;5028240;28;20465;-77
2023/01/25 05:58:59;;;;;;;15.03;8.10;;;3.50;1.00;;;;;;5026615;28;20939;-75
2023/01/25 06:01:25;;;;;;;17.10;9.00;;;3.70;1.00;;;;;;5028766;28;20464;-76
2023/01/25 06:03:51;;;;;;;15.87;9.00;;;3.50;1.00;;;;;;5025735;28;20543;-76
2023/01/25 06:06:17;;;;;;;14.90;7.90;;;4.10;1.00;;;;;;5018379;28;20528;-75
2023/01/25 06:08:43;;;;;;;12.90;7.80;;;3.50;1.00;;;;;;5029418;28;20716;-75
2023/01/25 06:11:10;;;;;;;13.57;7.97;;;4.00;1.00;;;;;;5028164;28;20210;-76
2023/01/25 06:13:36;;;;;;;15.57;9.23;;;3.50;1.00;;;;;;5028177;28;20537;-76
2023/01/25 06:16:02;;;;;;;13.57;7.67;;;3.50;1.00;;;;;;5019773;28;20955;-75
2023/01/25 06:18:29;;;;;;;13.40;7.37;;;3.40;1.00;;;;;;5024608;28;20419;-76
2023/01/25 06:20:59;;;;;;;13.17;7.67;;;3.60;1.00;;;;;;5026175;28;20190;-76
2023/01/25 06:23:25;;;;;;;14.10;7.63;;;3.40;1.00;;;;;;5028163;28;20920;-76
2023/01/25 06:25:54;;;;;;;12.20;6.80;;;3.90;1.00;;;;;;5026501;28;21024;-76
2023/01/25 06:28:19;;;;;;;11.87;6.67;;;3.30;1.00;;;;;;5024924;28;20448;-75
2023/01/25 06:30:45;;;;;;;13.97;8.00;;;3.40;1.00;;;;;;5029876;28;20428;-76
2023/01/25 06:33:10;;;;;;;16.00;8.73;;;3.30;1.00;;;;;;5031145;28;20222;-75
2023/01/25 06:35:36;;;;;;;15.23;8.57;;;3.80;1.00;;;;;;5035732;28;20829;-76
2023/01/25 06:38:02;;;;;;;14.17;8.40;;;3.70;1.00;;;;;;5029278;28;20202;-76
2023/01/25 06:40:28;;;;;;;16.07;8.43;;;3.30;1.00;;;;;;5032677;28;20431;-76
2023/01/25 06:42:54;;;;;;;17.93;9.30;;;3.30;1.00;;;;;;5027976;28;20575;-74
2023/01/25 06:45:20;;;;;;;15.93;8.40;;;3.30;1.00;;;;;;5031383;28;20185;-76
2023/01/25 06:47:48;;;;;;;16.30;8.43;;;3.30;1.00;;;;;;5034489;28;20222;-76
2023/01/25 06:50:13;;;;;;;14.23;8.67;;;3.40;1.00;;;;;;5031228;28;20189;-76
2023/01/25 06:52:39;;;;;;;13.77;7.60;;;3.50;1.00;;;;;;5032482;28;20506;-76
2023/01/25 06:55:12;;;;;;;14.03;8.10;;;3.50;1.00;;;;;;5030047;28;20527;-75
2023/01/25 06:57:38;;;;;;;13.90;8.23;;;3.40;1.00;;;;;;5032409;28;20757;-77
2023/01/25 07:00:04;;;;;;;15.03;8.90;;;3.80;1.00;;;;;;5030614;28;20437;-76
2023/01/25 07:02:30;;;;;;;14.27;7.97;;;3.50;1.00;;;;;;5032073;28;20233;-76
2023/01/25 07:04:55;;;;;;;17.47;9.23;;;3.50;1.00;;;;;;5029155;28;21017;-74
2023/01/25 07:07:21;;;;;;;16.90;8.40;;;3.50;1.00;;;;;;5030219;28;20205;-76
2023/01/25 07:09:46;;;;;;;16.40;9.43;;;3.50;1.00;;;;;;5022395;28;20200;-74
2023/01/25 07:12:12;;;;;;;18.97;8.77;;;3.50;1.00;;;;;;5026146;28;20232;-74
2023/01/25 07:14:37;;;;;;;17.43;8.90;;;3.50;1.00;;;;;;5030611;28;20308;-75
2023/01/25 07:17:03;;;;;;;17.30;9.47;;;3.50;1.00;;;;;;5024886;28;20603;-74
2023/01/25 07:19:28;;;;;;;16.33;8.90;;;3.50;1.00;;;;;;5037566;28;20182;-75
2023/01/25 07:21:54;;;;;;;17.20;9.20;;;3.50;1.00;;;;;;5026776;28;20208;-76
2023/01/25 07:24:19;;;;;;;19.17;9.13;;;3.60;1.00;;;;;;5026968;28;20265;-76
2023/01/25 07:26:46;;;;;;;14.77;8.17;;;3.50;1.00;;;;;;5028571;28;20261;-77
2023/01/25 07:29:14;;;;;;;17.47;9.00;;;3.40;1.00;;;;;;5029262;28;20188;-76
2023/01/25 07:31:40;;;;;;;16.07;8.40;;;3.40;1.00;;;;;;5029094;28;20514;-74
2023/01/25 07:34:08;;;;;;;14.80;8.20;;;3.50;1.00;;;;;;5031849;28;20938;-73
2023/01/25 07:36:34;;;;;;;14.67;8.13;;;3.70;1.00;;;;;;5041697;28;20826;-76
2023/01/25 07:38:59;;;;;;;16.47;9.53;;;3.50;1.00;;;;;;5030658;28;20425;-74
2023/01/25 07:41:25;;;;;;;17.37;8.97;;;3.40;1.00;;;;;;5033921;28;20241;-75
2023/01/25 07:43:52;;;;;;;15.53;8.60;;;3.90;1.00;;;;;;5027672;28;20217;-76
2023/01/25 07:46:17;;;;;;;16.77;9.15;;;3.50;1.00;;;;;;5027231;28;20433;-77
2023/01/25 07:48:48;;;;;;;14.67;8.57;;;3.90;1.00;;;;;;5029838;28;20182;-77
2023/01/25 07:51:23;;;;;;;14.60;8.70;;;3.90;1.00;;;;;;5030100;28;20553;-76
2023/01/25 07:53:55;;;;;;;13.00;7.83;;;3.60;1.00;;;;;;5024103;28;20488;-77
2023/01/25 07:56:23;;;;;;;19.77;10.20;;;3.60;1.00;;;;;;5023899;28;20437;-72
2023/01/25 07:58:51;;;;;;;14.07;8.03;;;3.60;1.00;;;;;;5024839;28;20938;-76
2023/01/25 08:01:19;;;;;;;14.90;8.90;;;3.60;1.00;;;;;;5025125;28;21053;-75
2023/01/25 08:03:46;;;;;;;21.33;9.27;;;3.90;1.00;;;;;;5024440;28;20559;-75
2023/01/25 08:06:12;;;;;;;14.67;8.17;;;3.60;1.00;;;;;;5026437;28;20424;-73
2023/01/25 08:08:46;;;;;;;17.50;8.40;;;3.60;1.00;;;;;;5025855;28;20437;-76
2023/01/25 08:11:24;;;;;;;16.37;8.80;;;3.60;1.00;;;;;;5027055;28;20530;-75
2023/01/25 08:13:49;;;;;;;15.93;8.73;;;4.00;1.00;;;;;;5030151;28;20764;-76
2023/01/25 08:16:17;;;;;;;17.10;9.23;;;3.70;1.00;;;;;;5029451;28;20431;-76
2023/01/25 08:18:45;;;;;;;20.30;10.20;;;4.10;1.00;;;;;;5030783;28;20189;-76
2023/01/25 08:21:11;;;;;;;18.33;9.40;;;3.80;1.00;;;;;;5031685;28;20456;-75
2023/01/25 08:23:37;;;;;;;19.20;9.77;;;3.90;1.00;;;;;;5028954;28;20436;-76
2023/01/25 08:26:07;;;;;;;18.80;9.97;;;4.00;1.00;;;;;;5029956;28;20236;-76
2023/01/25 08:28:34;;;;;;;23.57;11.73;;;4.50;1.00;;;;;;5030144;28;20308;-75
2023/01/25 08:31:07;;;;;;;18.80;10.47;;;3.90;1.00;;;;;;5027966;28;20516;-73
2023/01/25 08:33:33;;;;;;;21.93;12.87;;;3.90;1.00;;;;;;5028732;28;20464;-77
2023/01/25 08:35:58;;;;;;;16.50;9.50;;;4.00;1.00;;;;;;5027159;28;20558;-76
2023/01/25 08:38:24;;;;;;;20.13;10.30;;;4.00;1.00;;;;;;5027842;28;20507;-76
2023/01/25 08:40:49;;;;;;;16.83;9.47;;;4.00;1.00;;;;;;5031090;28;20548;-76
2023/01/25 08:43:15;;;;;;;22.63;13.20;;;4.00;1.00;;;;;;5029250;28;20190;-76
2023/01/25 08:45:41;;;;;;;18.63;10.40;;;4.20;1.00;;;;;;5030025;28;20182;-76
2023/01/25 08:48:06;;;;;;;26.70;12.57;;;4.10;1.00;;;;;;5030653;28;20193;-75
2023/01/25 08:50:32;;;;;;;20.60;11.00;;;4.10;1.00;;;;;;5029199;28;20244;-77
2023/01/25 08:52:57;;;;;;;21.47;10.97;;;4.00;1.00;;;;;;5025845;28;20206;-76
2023/01/25 08:55:23;;;;;;;21.97;12.73;;;4.10;1.00;;;;;;5029135;28;20384;-75
2023/01/25 08:57:48;;;;;;;19.37;10.93;;;4.10;1.00;;;;;;5026757;28;20208;-76
2023/01/25 09:00:14;;;;;;;17.70;10.17;;;4.40;1.00;;;;;;5028725;28;20178;-76
2023/01/25 09:02:40;;;;;;;24.90;15.37;;;4.00;1.00;;;;;;5030477;28;20201;-77
2023/01/25 09:05:06;;;;;;;25.37;14.43;;;4.10;1.00;;;;;;5028510;28;20429;-75
2023/01/25 09:07:36;;;;;;;21.50;12.97;;;4.10;1.00;;;;;;5027300;28;20193;-75
2023/01/25 09:10:02;;;;;;;25.70;13.77;;;4.20;1.00;;;;;;5027837;28;20186;-73
2023/01/25 09:12:28;;;;;;;23.83;12.53;;;4.20;1.00;;;;;;5027430;28;20460;-76
2023/01/25 09:14:53;;;;;;;31.73;15.40;;;4.10;1.00;;;;;;5029094;28;20975;-76
2023/01/25 09:17:19;;;;;;;22.80;11.43;;;4.60;1.00;;;;;;5028841;28;20212;-75
2023/01/25 09:19:46;;;;;;;28.43;19.00;;;4.20;1.00;;;;;;5028063;28;20257;-76
2023/01/25 09:22:11;;;;;;;23.43;10.83;;;4.60;1.00;;;;;;5028638;28;20579;-76
2023/01/25 09:24:36;;;;;;;17.50;9.80;;;4.30;1.00;;;;;;5028983;28;20512;-76
2023/01/25 09:27:02;;;;;;;20.37;10.33;;;4.70;1.00;;;;;;5028563;28;20247;-76
2023/01/25 09:29:27;;;;;;;17.90;10.20;;;4.10;1.00;;;;;;5030215;28;20671;-76
2023/01/25 09:31:53;;;;;;;16.77;9.90;;;4.10;1.00;;;;;;5027081;28;20213;-77
2023/01/25 09:34:21;;;;;;;17.70;10.60;;;4.10;1.00;;;;;;5028476;28;20791;-77
2023/01/25 09:36:46;;;;;;;17.90;9.40;;;4.20;1.00;;;;;;5027818;28;20480;-78
2023/01/25 09:39:12;;;;;;;18.50;9.57;;;4.80;1.00;;;;;;5028428;28;20436;-76
2023/01/25 09:42:11;;;;;;;18.60;9.40;;;4.30;1.00;;;;;;5031825;28;20246;-77
2023/01/25 09:44:54;;;;;;;15.93;8.83;;;4.40;1.00;;;;;;5025441;28;20189;-74
2023/01/25 09:47:46;;;;;;;20.37;10.57;;;4.40;1.00;;;;;;5015560;28;20433;-76
2023/01/25 09:50:33;;;;;;;17.93;9.43;;;4.50;1.00;;;;;;5015700;28;20463;-75
2023/01/25 09:53:37;;;;;;;16.77;9.70;;;4.40;1.00;;;;;;5026655;28;20462;-76
2023/01/25 09:56:26;;;;;;;16.13;9.00;;;4.30;1.00;;;;;;4985443;28;21062;-75
2023/01/25 09:58:59;;;;;;;17.60;9.80;;;4.40;1.00;;;;;;5026662;28;20447;-76
2023/01/25 10:01:45;;;;;;;19.70;10.50;;;4.40;1.00;;;;;;5027772;28;20460;-75
2023/01/25 10:04:18;;;;;;;17.10;9.73;;;4.50;1.00;;;;;;5041450;28;20440;-75
2023/01/25 10:06:57;;;;;;;23.70;10.40;;;4.50;1.00;;;;;;5030723;28;20533;-76
2023/01/25 10:09:51;;;;;;;17.57;9.60;;;4.60;1.00;;;;;;5030398;28;20572;-75
2023/01/25 10:12:26;;;;;;;21.87;10.80;;;4.50;1.00;;;;;;5022223;28;20468;-75
2023/01/25 10:14:53;;;;;;;21.07;10.47;;;4.50;1.00;;;;;;5028310;28;20431;-77
2023/01/25 10:17:37;;;;;;;18.50;9.50;;;5.10;1.00;;;;;;5030645;28;20518;-74
2023/01/25 10:20:40;;;;;;;19.40;10.27;;;4.60;1.00;;;;;;5029409;28;20511;-76
2023/01/25 10:23:35;;;;;;;18.40;9.73;;;4.70;1.00;;;;;;5018409;28;20874;-75
2023/01/25 10:26:20;;;;;;;21.00;10.63;;;4.50;1.00;;;;;;5033236;28;20452;-76
2023/01/25 10:29:02;;;;;;;17.00;9.10;;;4.50;1.00;;;;;;5039264;28;20478;-76
2023/01/25 10:31:39;;;;;;;16.90;10.27;;;4.60;1.00;;;;;;5029034;28;20464;-75
2023/01/25 10:34:18;;;;;;;14.70;8.63;;;4.60;1.00;;;;;;5043304;28;20442;-77
2023/01/25 10:36:50;;;;;;;14.90;8.20;;;4.60;1.00;;;;;;5029649;28;20843;-76
2023/01/25 10:39:17;;;;;;;17.67;10.27;;;4.60;1.00;;;;;;5030630;28;20448;-76
2023/01/25 10:41:49;;;;;;;20.50;10.40;;;4.60;1.00;;;;;;5030919;28;20456;-76
2023/01/25 10:44:21;;;;;;;15.80;8.83;;;4.60;1.00;;;;;;5030168;28;20442;-77
2023/01/25 10:47:16;;;;;;;18.00;9.53;;;4.60;1.00;;;;;;5029635;28;20492;-76
2023/01/25 10:49:47;;;;;;;17.90;9.37;;;4.60;1.00;;;;;;5034411;28;20938;-76
2023/01/25 10:52:27;;;;;;;19.83;9.70;;;4.60;1.00;;;;;;5031641;28;20463;-75
2023/01/25 10:55:07;;;;;;;17.40;10.37;;;4.60;1.00;;;;;;5033162;28;20846;-76
2023/01/25 10:57:34;;;;;;;22.97;11.07;;;4.60;1.00;;;;;;5028979;28;20486;-73
2023/01/25 11:00:10;;;;;;;20.27;10.30;;;4.90;1.00;;;;;;5046079;28;20431;-75
2023/01/25 11:02:44;;;;;;;21.80;9.03;;;4.70;1.00;;;;;;5030033;28;20517;-74
2023/01/25 11:05:26;;;;;;;17.37;9.67;;;4.80;1.00;;;;;;5031783;28;20437;-76
2023/01/25 11:07:52;;;;;;;22.80;10.20;;;4.80;1.00;;;;;;5026357;28;20439;-77
2023/01/25 11:10:32;;;;;;;19.20;10.07;;;4.90;1.00;;;;;;5027248;28;20527;-76
2023/01/25 11:13:18;;;;;;;17.10;9.30;;;4.90;1.00;;;;;;5026156;28;20209;-78
2023/01/25 11:15:55;;;;;;;17.80;9.57;;;5.00;1.00;;;;;;5030168;28;20475;-76
2023/01/25 11:18:25;;;;;;;16.53;9.30;;;5.00;1.00;;;;;;5044336;28;20467;-76
2023/01/25 11:21:21;;;;;;;26.97;13.13;;;5.10;1.00;;;;;;5026173;28;20440;-74
2023/01/25 11:24:08;;;;;;;24.00;11.93;;;5.00;1.00;;;;;;5026440;28;20527;-76
2023/01/25 11:26:36;;;;;;;19.20;10.07;;;5.00;1.00;;;;;;5031888;28;20486;-77
2023/01/25 11:29:17;;;;;;;23.33;13.93;;;5.40;1.00;;;;;;5031779;28;20435;-74
2023/01/25 11:31:46;;;;;;;15.57;9.10;;;5.10;1.00;;;;;;5027197;28;20463;-76
2023/01/25 11:34:18;;;;;;;15.07;8.63;;;5.10;1.00;;;;;;5031697;28;20425;-76
2023/01/25 11:37:05;;;;;;;17.20;9.50;;;5.00;1.00;;;;;;5029657;28;20943;-76
2023/01/25 11:39:58;;;;;;;17.40;8.97;;;4.90;1.00;;;;;;5030142;28;20531;-77
2023/01/25 11:42:32;;;;;;;18.03;9.40;;;4.80;1.00;;;;;;5028466;28;20897;-77
2023/01/25 11:45:29;;;;;;;13.70;8.10;;;4.80;1.00;;;;;;5032265;28;20424;-73
2023/01/25 11:48:42;;;;;;;17.17;8.97;;;4.80;1.00;;;;;;5031911;28;21020;-77
2023/01/25 11:51:12;;;;;;;18.57;8.90;;;4.70;1.00;;;;;;5022680;28;20464;-78
2023/01/25 11:54:04;;;;;;;16.83;8.77;;;4.70;1.00;;;;;;5027359;28;20547;-77
2023/01/25 11:57:18;;;;;;;20.10;10.30;;;5.20;1.00;;;;;;5028249;28;20448;-75
2023/01/25 12:00:09;;;;;;;19.70;11.33;;;4.80;1.00;;;;;;5019874;28;20421;-76
2023/01/25 12:02:47;;;;;;;17.37;9.57;;;4.80;1.00;;;;;;5028685;28;20554;-77
2023/01/25 12:05:18;;;;;;;17.50;10.60;;;4.80;1.00;;;;;;5030030;28;20820;-73
2023/01/25 12:07:58;;;;;;;18.70;9.20;;;4.80;1.00;;;;;;5030868;28;20440;-76
2023/01/25 12:11:15;;;;;;;14.33;8.73;;;4.90;1.00;;;;;;5028558;28;20433;-77
2023/01/25 12:13:57;;;;;;;187.37;56.63;;;4.90;1.00;;;;;;5028529;28;20539;-76
2023/01/25 12:16:42;;;;;;;277.33;77.13;;;4.90;1.00;;;;;;5029416;28;21050;-75
2023/01/25 12:19:17;;;;;;;35.50;15.97;;;5.00;1.00;;;;;;5029148;28;20435;-76
2023/01/25 12:22:07;;;;;;;18.90;9.90;;;4.90;1.00;;;;;;5026676;28;20449;-76
2023/01/25 12:24:42;;;;;;;19.43;11.83;;;4.80;1.00;;;;;;5030446;28;20512;-75
2023/01/25 12:27:17;;;;;;;23.40;11.33;;;4.80;1.00;;;;;;5031750;28;20439;-75
2023/01/25 12:29:49;;;;;;;24.20;11.60;;;4.80;1.00;;;;;;5038803;28;20432;-76
2023/01/25 12:32:38;;;;;;;23.70;11.53;;;4.80;1.00;;;;;;5030465;28;20487;-73
2023/01/25 12:35:25;;;;;;;25.20;11.60;;;4.60;1.00;;;;;;5030906;28;20519;-76
2023/01/25 12:37:57;;;;;;;22.60;11.20;;;4.50;1.00;;;;;;5030372;28;20467;-76
2023/01/25 12:40:31;;;;;;;23.30;11.27;;;4.40;1.00;;;;;;5028665;28;20496;-77
2023/01/25 12:42:58;;;;;;;27.30;11.40;;;4.40;1.00;;;;;;5028144;28;20461;-76
2023/01/25 12:45:29;;;;;;;27.60;11.97;;;4.50;1.00;;;;;;5026917;28;20489;-76
2023/01/25 12:48:16;;;;;;;25.80;12.57;;;4.90;1.00;;;;;;5029222;28;20459;-76
2023/01/25 12:50:55;;;;;;;28.50;13.07;;;4.30;1.00;;;;;;5023542;28;20436;-76
2023/01/25 12:53:23;;;;;;;27.43;11.80;;;4.40;1.00;;;;;;5031966;28;20797;-76
2023/01/25 12:55:50;;;;;;;23.30;11.43;;;4.40;1.00;;;;;;5028084;28;20428;-76
2023/01/25 12:58:45;;;;;;;23.37;11.30;;;4.40;1.00;;;;;;5027848;28;20464;-74
2023/01/25 13:01:37;;;;;;;19.60;10.70;;;4.40;1.00;;;;;;5024896;28;20444;-76
2023/01/25 13:04:08;;;;;;;19.97;11.00;;;4.40;1.00;;;;;;5027695;28;20440;-76
2023/01/25 13:07:08;;;;;;;24.17;10.80;;;4.40;1.00;;;;;;5029732;28;20857;-76
2023/01/25 13:09:40;;;;;;;24.13;11.60;;;4.40;1.00;;;;;;5041151;28;20525;-75
2023/01/25 13:12:10;;;;;;;23.80;11.50;;;4.30;1.00;;;;;;5024631;28;20519;-77